Time;durP1;ratioP1;P1;durP2;ratioP2;P2;SDS_P1;SDS_P2;PMS_P1;PMS_P2;Temp;Humidity;BMP_temperature;BMP_pressure;BME280_temperature;BME280_humidity;BME280_pressure;Samples;Min_cycle;Max_cycle;Signal;HPM_P1;HPM_P2
2023/05/22 00:01:03;;;;;;;1999.90;999.90;;;;;;;15.38;100.00;94825.66;5063820;28;20218;-71
2023/05/22 00:03:29;;;;;;;1999.90;999.90;;;;;;;15.32;100.00;94819.16;5046777;28;20205;-69
2023/05/22 00:05:57;;;;;;;1999.90;999.90;;;;;;;15.29;100.00;94819.28;5046547;28;20204;-69
2023/05/22 00:08:24;;;;;;;1999.90;999.90;;;;;;;15.22;100.00;94823.06;5063399;28;20208;-69
2023/05/22 00:10:49;;;;;;;1999.90;999.90;;;;;;;15.20;100.00;94817.25;5064514;28;20289;-70
2023/05/22 00:13:14;;;;;;;1999.90;999.90;;;;;;;15.16;100.00;94813.81;5067201;28;20197;-70
2023/05/22 00:15:40;;;;;;;1999.90;999.90;;;;;;;15.14;100.00;94810.00;5050554;28;20198;-70
2023/05/22 00:18:06;;;;;;;1999.90;999.90;;;;;;;15.08;100.00;94807.03;5066996;28;20240;-69
2023/05/22 00:20:37;;;;;;;1999.90;999.90;;;;;;;15.04;100.00;94806.41;5050665;28;20209;-69
2023/05/22 00:23:03;;;;;;;1999.90;999.90;;;;;;;15.03;100.00;94809.59;5050164;28;20275;-69
2023/05/22 00:25:28;;;;;;;1999.90;999.90;;;;;;;14.97;100.00;94801.16;5050026;28;20197;-70
2023/05/22 00:27:54;;;;;;;1999.90;999.90;;;;;;;14.92;100.00;94804.47;5050618;28;20176;-70
2023/05/22 00:30:19;;;;;;;1999.90;999.90;;;;;;;14.85;100.00;94799.22;5067198;28;20247;-70
2023/05/22 00:32:44;;;;;;;1999.90;999.90;;;;;;;14.82;100.00;94788.34;5067020;28;20209;-70
2023/05/22 00:35:10;;;;;;;1999.90;999.90;;;;;;;14.77;100.00;94800.69;5066604;28;20273;-70
2023/05/22 00:37:35;;;;;;;1999.90;999.90;;;;;;;14.74;100.00;94776.81;5049976;28;20197;-70
2023/05/22 00:40:01;;;;;;;1999.90;999.90;;;;;;;14.74;100.00;94773.28;5066388;28;20210;-70
2023/05/22 00:42:26;;;;;;;1999.90;999.90;;;;;;;14.70;100.00;94772.66;5066452;28;20194;-69
2023/05/22 00:44:52;;;;;;;1999.90;999.90;;;;;;;14.65;100.00;94756.72;5066359;28;20205;-70
2023/05/22 00:47:17;;;;;;;1999.90;999.90;;;;;;;14.62;100.00;94763.13;5049826;28;20205;-70
2023/05/22 00:49:44;;;;;;;1999.90;999.90;;;;;;;14.55;100.00;94747.63;5049825;28;20201;-70
2023/05/22 00:52:11;;;;;;;1999.90;999.90;;;;;;;14.52;100.00;94736.75;5066388;28;20225;-69
2023/05/22 00:54:37;;;;;;;1999.90;999.90;;;;;;;14.48;100.00;94739.63;5066703;28;20198;-70
2023/05/22 00:57:02;;;;;;;1999.90;999.90;;;;;;;14.43;100.00;94734.72;5049662;28;20174;-70
2023/05/22 00:59:28;;;;;;;1999.90;999.90;;;;;;;14.41;100.00;94723.38;5049632;28;20285;-70
2023/05/22 01:01:55;;;;;;;1999.90;999.90;;;;;;;14.38;100.00;94726.25;5066384;28;20197;-70
2023/05/22 01:04:21;;;;;;;1999.90;999.90;;;;;;;14.35;100.00;94727.91;5066510;28;20243;-69
2023/05/22 01:06:46;;;;;;;1999.90;999.90;;;;;;;14.32;100.00;94723.31;5049430;28;20276;-69
2023/05/22 01:09:13;;;;;;;1999.90;999.90;;;;;;;14.31;100.00;94710.78;5066037;28;20219;-69
2023/05/22 01:11:57;;;;;;;1999.90;999.90;;;;;;;14.31;100.00;94710.78;5049463;28;20201;-69
2023/05/22 01:14:45;;;;;;;1999.90;999.90;;;;;;;14.25;100.00;94703.53;5065908;28;20202;-69
2023/05/22 01:17:33;;;;;;;1999.90;999.90;;;;;;;14.14;100.00;94698.38;5049302;28;20213;-69
2023/05/22 01:20:14;;;;;;;1999.90;999.90;;;;;;;14.09;100.00;94687.19;5049350;28;20278;-69
2023/05/22 01:23:01;;;;;;;1999.90;999.90;;;;;;;14.03;100.00;94681.50;5049138;28;20212;-70
2023/05/22 01:25:42;;;;;;;1999.90;999.90;;;;;;;14.02;100.00;94674.44;5049194;28;20216;-70
2023/05/22 01:28:33;;;;;;;1999.90;999.90;;;;;;;14.00;100.00;94670.63;5049142;28;20225;-69
2023/05/22 01:31:09;;;;;;;1999.90;999.90;;;;;;;13.98;100.00;94660.06;5037905;28;20250;-70
2023/05/22 01:33:42;;;;;;;1999.90;999.90;;;;;;;13.96;100.00;94635.06;5065927;28;20281;-69
2023/05/22 01:36:10;;;;;;;1999.90;999.90;;;;;;;13.89;100.00;94629.81;5065731;28;20229;-69
2023/05/22 01:38:36;;;;;;;1999.90;999.90;;;;;;;13.83;100.00;94626.06;5065614;28;20202;-70
2023/05/22 01:41:01;;;;;;;1999.90;999.90;;;;;;;13.80;100.00;94615.97;5065148;28;20281;-70
2023/05/22 01:43:27;;;;;;;1999.90;999.90;;;;;;;13.75;100.00;94616.53;5065809;28;20272;-70
2023/05/22 01:45:52;;;;;;;1999.90;999.90;;;;;;;13.75;100.00;94602.81;5048673;28;20208;-70
2023/05/22 01:48:18;;;;;;;1999.90;999.90;;;;;;;13.74;100.00;94598.53;5065053;28;20205;-70
2023/05/22 01:50:44;;;;;;;1999.90;999.90;;;;;;;13.73;100.00;94588.75;5065583;28;20276;-71
2023/05/22 01:53:31;;;;;;;1999.90;999.90;;;;;;;13.63;100.00;94594.59;5065283;28;20201;-70
2023/05/22 01:56:08;;;;;;;1999.90;999.90;;;;;;;13.58;100.00;94575.97;5048247;28;20201;-70
2023/05/22 01:59:01;;;;;;;1999.90;999.90;;;;;;;13.58;100.00;94560.25;5065347;28;20269;-70
2023/05/22 02:01:29;;;;;;;1999.90;999.90;;;;;;;13.57;100.00;94547.75;5064887;28;20284;-69
2023/05/22 02:03:57;;;;;;;1999.90;999.90;;;;;;;13.57;100.00;94547.75;5064897;28;20209;-70
2023/05/22 02:06:27;;;;;;;1999.90;999.90;;;;;;;13.54;100.00;94548.63;5065344;28;20209;-69
2023/05/22 02:08:53;;;;;;;1999.90;999.90;;;;;;;13.51;100.00;94544.03;5065059;28;20216;-69
2023/05/22 02:11:20;;;;;;;1999.90;999.90;;;;;;;13.51;100.00;94544.03;5064977;28;20205;-70
2023/05/22 02:13:46;;;;;;;1999.90;999.90;;;;;;;13.50;100.00;94539.78;5048468;28;20202;-70
2023/05/22 02:16:12;;;;;;;1999.90;999.90;;;;;;;13.47;100.00;94537.91;5065138;28;20208;-70
2023/05/22 02:18:40;;;;;;;1999.90;999.90;;;;;;;13.43;100.00;94531.78;5065171;28;20206;-70
2023/05/22 02:21:07;;;;;;;1999.90;999.90;;;;;;;13.40;100.00;94543.63;5048214;28;20225;-69
2023/05/22 02:23:32;;;;;;;1999.90;999.90;;;;;;;13.38;100.00;94548.78;5047812;28;20247;-70
2023/05/22 02:25:58;;;;;;;1999.90;999.90;;;;;;;13.38;100.00;94539.78;5047892;28;20205;-70
2023/05/22 02:28:23;;;;;;;1999.90;999.90;;;;;;;13.38;100.00;94533.09;5047770;28;20201;-70
2023/05/22 02:30:49;;;;;;;1999.90;999.90;;;;;;;13.35;100.00;94535.97;5064475;28;20205;-71
2023/05/22 02:33:16;;;;;;;1999.90;999.90;;;;;;;13.29;100.00;94538.50;5063965;28;20221;-70
2023/05/22 02:35:42;;;;;;;1999.90;999.90;;;;;;;13.30;100.00;94544.75;5048212;28;20280;-70
2023/05/22 02:38:08;;;;;;;1999.90;999.90;;;;;;;13.33;100.00;94549.34;5047295;28;20216;-70
2023/05/22 02:40:33;;;;;;;1999.90;999.90;;;;;;;13.30;100.00;94547.50;5064627;28;20213;-69
2023/05/22 02:42:58;;;;;;;1999.90;999.90;;;;;;;13.28;100.00;94560.88;5063917;28;20208;-70
2023/05/22 02:45:24;;;;;;;1999.90;999.90;;;;;;;13.23;100.00;94566.91;5064576;28;20198;-70
2023/05/22 02:47:49;;;;;;;1999.90;999.90;;;;;;;13.23;100.00;94577.88;5064488;28;20251;-70
2023/05/22 02:50:15;;;;;;;1999.90;999.90;;;;;;;13.21;100.00;94580.28;5064415;28;20212;-68
2023/05/22 02:52:40;;;;;;;1999.90;999.90;;;;;;;13.19;100.00;94593.69;5047505;28;20211;-69
2023/05/22 02:55:07;;;;;;;1999.90;999.90;;;;;;;13.21;100.00;94607.69;5064012;28;20200;-69
2023/05/22 02:57:32;;;;;;;1999.90;999.90;;;;;;;13.22;100.00;94623.72;5064168;28;20208;-69
2023/05/22 02:59:58;;;;;;;1999.90;999.90;;;;;;;13.24;100.00;94634.25;5064275;28;20241;-68
2023/05/22 03:02:27;;;;;;;1999.90;999.90;;;;;;;13.21;100.00;94663.31;5063670;28;20280;-69
2023/05/22 03:04:52;;;;;;;1999.90;999.90;;;;;;;13.22;100.00;94669.56;5063885;28;20224;-71
2023/05/22 03:07:20;;;;;;;1999.90;999.90;;;;;;;13.20;100.00;94682.94;5047400;28;20240;-67
2023/05/22 03:09:45;;;;;;;1999.90;999.90;;;;;;;13.19;100.00;94682.16;5063630;28;20194;-70
2023/05/22 03:12:11;;;;;;;1999.90;999.90;;;;;;;13.12;100.00;94692.59;5047669;28;20245;-69
2023/05/22 03:14:36;;;;;;;1999.90;999.90;;;;;;;13.09;100.00;94687.97;5064434;28;20220;-67
2023/05/22 03:17:01;;;;;;;1999.90;999.90;;;;;;;13.08;100.00;94681.72;5063991;28;20206;-68
2023/05/22 03:19:27;;;;;;;1999.90;999.90;;;;;;;13.06;100.00;94677.88;5063601;28;20288;-68
2023/05/22 03:21:52;;;;;;;1999.90;999.90;;;;;;;13.01;100.00;94678.41;5064093;28;20205;-69
2023/05/22 03:24:17;;;;;;;1999.90;999.90;;;;;;;12.96;100.00;94667.94;5064046;28;20269;-68
2023/05/22 03:26:43;;;;;;;1999.90;999.90;;;;;;;12.88;100.00;94661.16;5046985;28;20206;-68
2023/05/22 03:29:08;;;;;;;1999.90;999.90;;;;;;;12.83;100.00;94650.72;5046896;28;20247;-68
2023/05/22 03:31:34;;;;;;;1999.90;999.90;;;;;;;12.80;100.00;94640.63;5047042;28;20201;-68
2023/05/22 03:34:00;;;;;;;1999.90;999.90;;;;;;;12.79;100.00;94630.88;5064271;28;20194;-66
2023/05/22 03:36:25;;;;;;;1999.90;999.90;;;;;;;12.67;100.00;94639.81;5046824;28;20193;-67
2023/05/22 03:38:51;;;;;;;1999.90;999.90;;;;;;;12.65;100.00;94659.44;5063924;28;20194;-69
2023/05/22 03:41:17;;;;;;;1999.90;999.90;;;;;;;12.77;100.00;94671.63;5063329;28;20216;-66
2023/05/22 03:43:42;;;;;;;1999.90;999.90;;;;;;;12.90;100.00;94675.19;5047327;28;20206;-65
2023/05/22 03:46:09;;;;;;;1999.90;999.90;;;;;;;13.09;100.00;94687.97;5049001;28;20378;-67
2023/05/22 03:48:35;;;;;;;1999.90;999.90;;;;;;;13.15;100.00;94700.69;5051223;28;20197;-67
2023/05/22 03:51:00;;;;;;;1999.90;999.90;;;;;;;13.26;100.00;94711.38;5067148;28;20205;-67
2023/05/22 03:53:25;;;;;;;1999.90;999.90;;;;;;;13.36;100.00;94713.00;5067402;28;20194;-71
2023/05/22 03:55:51;;;;;;;1999.90;999.90;;;;;;;13.45;100.00;94721.38;5067228;28;20201;-70
2023/05/22 03:58:16;;;;;;;1999.90;999.90;;;;;;;13.57;100.00;94734.31;5067203;28;20341;-68
2023/05/22 04:00:42;;;;;;;1999.90;999.90;;;;;;;13.73;100.00;94744.44;5067153;28;20206;-68
2023/05/22 04:03:11;;;;;;;1999.90;999.90;;;;;;;13.87;100.00;94772.19;5050618;28;20212;-67
2023/05/22 04:05:37;;;;;;;1999.90;999.90;;;;;;;14.09;100.00;94781.31;5051247;28;20197;-66
2023/05/22 04:08:03;;;;;;;1999.90;999.90;;;;;;;14.33;100.00;94801.75;5067197;28;20193;-69
2023/05/22 04:10:28;;;;;;;1999.90;999.90;;;;;;;14.54;100.00;94814.81;5051284;28;20264;-68
2023/05/22 04:12:54;;;;;;;1999.90;999.90;;;;;;;14.85;100.00;94828.69;5050665;28;20185;-70
2023/05/22 04:15:20;;;;;;;1999.90;999.90;;;;;;;15.20;100.00;94853.00;5067203;28;20194;-70
2023/05/22 04:17:46;;;;;;;1999.90;999.90;;;;;;;15.50;100.00;94865.34;5067300;28;20204;-70
2023/05/22 04:20:12;;;;;;;1999.90;999.90;;;;;;;15.69;100.00;94883.50;5050722;28;20276;-68
2023/05/22 04:22:38;;;;;;;1999.90;999.90;;;;;;;15.96;100.00;94895.47;5066919;28;20193;-68
2023/05/22 04:25:04;;;;;;;1999.90;999.90;;;;;;;16.25;100.00;94895.94;5066704;28;20194;-67
2023/05/22 04:27:29;;;;;;;1999.90;999.90;;;;;;;16.46;100.00;94912.94;5066826;28;20194;-67
2023/05/22 04:29:54;;;;;;;1999.90;999.90;;;;;;;16.79;100.00;94916.75;5066818;28;20205;-68
2023/05/22 04:32:22;;;;;;;1999.90;999.90;;;;;;;17.03;100.00;94923.25;5050135;28;20196;-68
2023/05/22 04:34:51;;;;;;;1999.90;999.90;;;;;;;17.35;100.00;94931.00;5066447;28;20198;-67
2023/05/22 04:37:19;;;;;;;1999.90;999.90;;;;;;;17.51;100.00;94936.25;5050061;28;20285;-65
2023/05/22 04:39:45;;;;;;;1999.90;999.90;;;;;;;17.76;100.00;94933.19;5066512;28;20210;-66
2023/05/22 04:42:14;;;;;;;1999.90;999.90;;;;;;;17.96;100.00;94939.03;5066386;28;20177;-65
2023/05/22 04:44:41;;;;;;;1999.90;999.90;;;;;;;18.24;100.00;94940.53;5066785;28;20201;-66
2023/05/22 04:47:10;;;;;;;1999.90;999.90;;;;;;;18.46;100.00;94954.94;5066270;28;20193;-65
2023/05/22 04:49:39;;;;;;;1999.90;999.90;;;;;;;18.59;100.00;94952.78;5066559;28;20269;-66
2023/05/22 04:52:05;;;;;;;1999.90;999.90;;;;;;;18.75;100.00;94955.16;5066106;28;20205;-66
2023/05/22 04:54:31;;;;;;;1999.90;999.90;;;;;;;19.07;100.00;94955.22;5066603;28;20236;-66
2023/05/22 04:56:56;;;;;;;1999.90;999.90;;;;;;;19.29;100.00;94949.44;5048917;28;20197;-66
2023/05/22 04:59:25;;;;;;;1999.90;999.90;;;;;;;19.70;100.00;94956.84;5066256;28;20198;-65
2023/05/22 05:01:51;;;;;;;1999.90;999.90;;;;;;;19.80;100.00;94952.78;5066529;28;20276;-65
2023/05/22 05:04:16;;;;;;;1999.90;999.90;;;;;;;20.25;100.00;94951.69;5049560;28;20225;-65
2023/05/22 05:06:42;;;;;;;1999.90;999.90;;;;;;;20.37;100.00;94958.94;5049660;28;20215;-67
2023/05/22 05:09:07;;;;;;;1999.90;999.90;;;;;;;20.71;100.00;94956.28;5049675;28;20177;-66
2023/05/22 05:11:33;;;;;;;1999.90;999.90;;;;;;;21.22;100.00;94951.06;5049613;28;20198;-66
2023/05/22 05:13:58;;;;;;;1999.90;999.90;;;;;;;21.68;100.00;94948.41;5065781;28;20223;-65
2023/05/22 05:16:25;;;;;;;1999.90;999.90;;;;;;;21.79;100.00;94949.38;5065689;28;20201;-65
2023/05/22 05:18:50;;;;;;;1999.90;999.90;;;;;;;22.30;100.00;94946.66;5065742;28;20208;-65
2023/05/22 05:21:16;;;;;;;1999.90;999.90;;;;;;;22.34;100.00;94949.22;5048883;28;20284;-65
2023/05/22 05:23:41;;;;;;;1999.90;999.90;;;;;;;22.52;100.00;94944.13;5049461;28;20215;-65
2023/05/22 05:26:07;;;;;;;1999.90;999.90;;;;;;;22.98;100.00;94951.63;5048963;28;20308;-65
2023/05/22 05:28:32;;;;;;;1999.90;999.90;;;;;;;23.36;100.00;94949.16;5065485;28;20197;-66
2023/05/22 05:30:57;;;;;;;1999.90;999.90;;;;;;;23.67;100.00;94967.84;5065181;28;20276;-65
2023/05/22 05:33:23;;;;;;;1999.90;999.90;;;;;;;24.12;100.00;94958.44;5065300;28;20221;-64
2023/05/22 05:35:49;;;;;;;1999.90;999.90;;;;;;;24.20;100.00;94965.06;5048799;28;20209;-65
2023/05/22 05:38:15;;;;;;;1999.90;999.90;;;;;;;24.66;100.00;94969.03;5065635;28;20316;-65
2023/05/22 05:40:42;;;;;;;1999.90;999.90;;;;;;;24.52;100.00;94966.44;5065637;28;20210;-65
2023/05/22 05:43:08;;;;;;;1999.90;999.90;;;;;;;25.23;100.00;94969.34;5048962;28;20240;-65
2023/05/22 05:45:33;;;;;;;1999.90;999.90;;;;;;;25.49;100.00;94971.13;5048907;28;20225;-64
2023/05/22 05:47:58;;;;;;;1999.90;999.90;;;;;;;25.78;100.00;94976.91;5065036;28;20198;-63
2023/05/22 05:50:23;;;;;;;1999.90;999.90;;;;;;;25.62;100.00;94979.75;5064963;28;20197;-63
2023/05/22 05:52:49;;;;;;;1999.90;999.90;;;;;;;25.25;100.00;94982.81;5064780;28;20198;-63
2023/05/22 05:55:14;;;;;;;1999.90;999.90;;;;;;;25.74;100.00;94979.22;5064853;28;20190;-62
2023/05/22 05:57:40;;;;;;;1999.90;999.90;;;;;;;26.57;97.99;94976.91;5048263;28;20200;-62
2023/05/22 06:00:10;;;;;;;1999.90;999.90;;;;;;;26.46;92.51;94976.97;5064958;28;20206;-62
2023/05/22 06:02:36;;;;;;;1999.90;999.90;;;;;;;26.65;97.61;94975.09;5064910;28;20201;-63
2023/05/22 06:05:04;;;;;;;1999.90;999.90;;;;;;;27.22;88.88;94985.44;5064929;28;20260;-62
2023/05/22 06:07:30;;;;;;;1999.90;999.90;;;;;;;27.34;84.93;94976.41;5047861;28;20198;-63
2023/05/22 06:09:56;;;;;;;1999.90;999.90;;;;;;;27.71;78.96;94987.03;5063849;28;20173;-63
2023/05/22 06:12:22;;;;;;;1999.90;999.90;;;;;;;27.45;80.29;94976.31;5048486;28;20198;-63
2023/05/22 06:14:47;;;;;;;1999.90;999.90;;;;;;;28.09;77.07;94983.84;5065050;28;20193;-63
2023/05/22 06:17:13;;;;;;;1999.90;999.90;;;;;;;28.27;74.56;94983.13;5064668;28;20260;-62
2023/05/22 06:19:38;;;;;;;1999.90;999.90;;;;;;;28.36;73.45;94982.00;5064501;28;20206;-62
2023/05/22 06:22:04;;;;;;;1999.90;999.90;;;;;;;28.85;71.13;94971.41;5047863;28;20202;-62
2023/05/22 06:24:31;;;;;;;1999.90;999.90;;;;;;;28.91;72.44;94975.66;5064477;28;20189;-62
2023/05/22 06:26:56;;;;;;;1999.90;999.90;;;;;;;28.93;71.90;94975.13;5064738;28;20194;-62
2023/05/22 06:29:22;;;;;;;1999.90;999.90;;;;;;;29.33;70.66;94977.63;5047809;28;20197;-62
2023/05/22 06:31:47;;;;;;;1999.90;999.90;;;;;;;29.67;67.36;94977.81;5064193;28;20193;-63
2023/05/22 06:34:12;;;;;;;1999.90;999.90;;;;;;;30.01;66.75;94981.56;5064701;28;20213;-63
2023/05/22 06:36:38;;;;;;;1999.90;999.90;;;;;;;30.70;62.49;94984.81;5064381;28;20220;-63
2023/05/22 06:39:03;;;;;;;1999.90;999.90;;;;;;;30.17;63.64;94986.16;5064044;28;20209;-63
2023/05/22 06:41:29;;;;;;;1999.90;999.90;;;;;;;30.26;62.58;94980.84;5064565;28;20204;-63
2023/05/22 06:43:54;;;;;;;1999.90;999.90;;;;;;;30.98;59.70;94982.16;5047713;28;20189;-64
2023/05/22 06:46:20;;;;;;;1999.90;999.90;;;;;;;31.13;58.92;94979.50;5064238;28;20208;-63
2023/05/22 06:48:45;;;;;;;1999.90;999.90;;;;;;;31.19;57.62;94982.94;5063974;28;20242;-63
2023/05/22 06:51:11;;;;;;;1999.90;999.90;;;;;;;31.55;57.64;94981.09;5064047;28;20196;-63
2023/05/22 06:53:37;;;;;;;1999.90;999.90;;;;;;;31.68;57.02;94978.16;5047612;28;20200;-63
2023/05/22 06:56:04;;;;;;;1999.90;999.90;;;;;;;31.41;59.56;94976.81;5063903;28;20193;-63
2023/05/22 06:58:29;;;;;;;1999.90;999.90;;;;;;;31.72;57.95;94989.88;5064290;28;20204;-63
2023/05/22 07:00:55;;;;;;;1999.90;999.90;;;;;;;32.08;56.32;94982.28;5063709;28;20228;-64
2023/05/22 07:03:20;;;;;;;1999.90;999.90;;;;;;;32.14;55.50;94984.94;5063792;28;20212;-64
2023/05/22 07:05:46;;;;;;;1999.90;999.90;;;;;;;31.87;55.82;94984.41;5064268;28;20181;-63
2023/05/22 07:08:11;;;;;;;1999.90;999.90;;;;;;;32.27;58.18;94988.47;5063763;28;20190;-63
2023/05/22 07:10:37;;;;;;;1999.90;999.90;;;;;;;33.25;53.73;94986.84;5063378;28;20193;-64
2023/05/22 07:13:02;;;;;;;1999.90;999.90;;;;;;;32.80;54.06;94988.75;5047101;28;20173;-63
2023/05/22 07:15:28;;;;;;;1999.90;999.90;;;;;;;32.53;57.37;94993.91;5064314;28;20190;-63
2023/05/22 07:17:53;;;;;;;1999.90;999.90;;;;;;;33.38;53.17;94998.06;5047560;28;20194;-63
2023/05/22 07:20:18;;;;;;;1999.90;999.90;;;;;;;33.61;50.03;94998.13;5063250;28;20208;-63
2023/05/22 07:22:44;;;;;;;1999.90;999.90;;;;;;;34.05;51.10;94995.88;5063910;28;20235;-63
2023/05/22 07:25:09;;;;;;;1999.90;999.90;;;;;;;33.71;49.86;94996.97;5063364;28;20197;-63
2023/05/22 07:27:35;;;;;;;1999.90;999.90;;;;;;;33.40;52.38;94995.41;5047142;28;20185;-64
2023/05/22 07:30:00;;;;;;;1999.90;999.90;;;;;;;35.07;47.09;95002.50;5063376;28;20209;-63
2023/05/22 07:32:25;;;;;;;1999.90;999.90;;;;;;;35.01;49.09;94999.09;5063423;28;20212;-64
2023/05/22 07:34:51;;;;;;;1999.90;999.90;;;;;;;34.57;48.63;94995.84;5047173;28;20196;-65
2023/05/22 07:37:17;;;;;;;1999.90;999.90;;;;;;;34.26;50.47;94987.94;5063670;28;20189;-66
2023/05/22 07:39:42;;;;;;;1999.90;999.90;;;;;;;34.88;49.54;94990.84;5047243;28;20194;-65
2023/05/22 07:42:08;;;;;;;1999.90;999.90;;;;;;;34.40;47.88;94998.50;5046808;28;20272;-64
2023/05/22 07:44:33;;;;;;;1999.90;999.90;;;;;;;33.97;50.11;94989.47;5063796;28;20178;-64
2023/05/22 07:46:58;;;;;;;1999.90;999.90;;;;;;;33.61;52.65;94987.53;5063448;28;20243;-64
2023/05/22 07:49:24;;;;;;;1999.90;999.90;;;;;;;33.89;50.95;94994.38;5063781;28;20197;-64
2023/05/22 07:51:49;;;;;;;1999.90;999.90;;;;;;;33.87;52.57;94999.84;5063229;28;20193;-65
2023/05/22 07:54:15;;;;;;;1999.90;999.90;;;;;;;34.07;51.49;94999.66;5047205;28;20190;-63
2023/05/22 07:56:41;;;;;;;1999.90;999.90;;;;;;;34.15;51.60;94997.56;5046693;28;20193;-64
2023/05/22 07:59:07;;;;;;;1999.90;999.90;;;;;;;34.77;49.07;95002.59;5063044;28;20190;-64
2023/05/22 08:01:33;;;;;;;1999.90;999.90;;;;;;;35.34;47.54;95003.53;5063314;28;20202;-64
2023/05/22 08:03:58;;;;;;;1999.90;999.90;;;;;;;35.22;47.26;95003.19;5046542;28;20207;-65
2023/05/22 08:06:24;;;;;;;1999.90;999.90;;;;;;;34.76;49.14;94998.22;5063229;28;20198;-62
2023/05/22 08:08:51;;;;;;;1999.90;999.90;;;;;;;35.13;46.94;95000.19;5063127;28;20182;-63
2023/05/22 08:11:17;;;;;;;1999.90;999.90;;;;;;;34.89;48.93;94998.03;5046772;28;20213;-62
2023/05/22 08:13:42;;;;;;;1999.90;999.90;;;;;;;34.23;49.24;94997.56;5047022;28;20181;-62
2023/05/22 08:16:08;;;;;;;1999.90;999.90;;;;;;;34.69;48.07;94996.16;5063578;28;20268;-62
2023/05/22 08:18:34;;;;;;;1999.90;999.90;;;;;;;35.14;47.96;95007.41;5063478;28;20193;-64
2023/05/22 08:20:59;;;;;;;1999.90;999.90;;;;;;;34.91;48.22;95003.88;5063005;28;20228;-64
2023/05/22 08:23:24;;;;;;;1999.90;999.90;;;;;;;35.54;46.31;95000.38;5063388;28;20268;-62
2023/05/22 08:25:50;;;;;;;1999.90;999.90;;;;;;;34.33;50.72;94993.59;5063135;28;20193;-64
2023/05/22 08:28:15;;;;;;;1999.90;999.90;;;;;;;35.67;47.59;94990.81;5063039;28;20194;-63
2023/05/22 08:30:41;;;;;;;1999.90;999.90;;;;;;;34.54;49.59;94993.38;5062960;28;20206;-63
2023/05/22 08:33:06;;;;;;;1999.90;999.90;;;;;;;34.98;49.57;94988.88;5066233;28;20202;-64
2023/05/22 08:35:31;;;;;;;1999.90;999.90;;;;;;;35.14;49.23;94985.41;5066888;28;20259;-64
2023/05/22 08:37:56;;;;;;;1999.90;999.90;;;;;;;35.29;46.37;94984.59;5066498;28;20196;-64
2023/05/22 08:40:23;;;;;;;1999.90;999.90;;;;;;;35.12;47.58;94987.31;5066917;28;20221;-63
2023/05/22 08:42:53;;;;;;;1999.90;999.90;;;;;;;34.46;49.75;94978.44;5066410;28;20265;-64
2023/05/22 08:45:18;;;;;;;1999.90;999.90;;;;;;;35.02;49.53;94975.03;5066355;28;20248;-64
2023/05/22 08:47:50;;;;;;;1999.90;999.90;;;;;;;34.99;51.48;94968.44;5049963;28;20189;-63
2023/05/22 08:50:16;;;;;;;1999.90;999.90;;;;;;;35.47;49.09;94977.69;5066214;28;20216;-62
2023/05/22 08:52:49;;;;;;;1999.90;999.90;;;;;;;35.46;47.20;94976.16;5066252;28;20228;-64
2023/05/22 08:55:15;;;;;;;1999.90;999.90;;;;;;;35.63;47.37;94974.16;5066511;28;20193;-65
2023/05/22 08:57:41;;;;;;;1999.90;999.90;;;;;;;35.07;48.09;94974.84;5049571;28;20194;-64
2023/05/22 09:00:07;;;;;;;1999.90;999.90;;;;;;;34.66;50.70;94974.63;5065886;28;20194;-64
2023/05/22 09:02:33;;;;;;;1999.90;999.90;;;;;;;35.14;50.82;94965.50;5065944;28;20221;-63
2023/05/22 09:05:00;;;;;;;1999.90;999.90;;;;;;;35.25;50.68;94972.88;5066150;28;20186;-64
2023/05/22 09:07:26;;;;;;;1999.90;999.90;;;;;;;35.06;50.00;94972.59;5065923;28;20225;-64
2023/05/22 09:09:52;;;;;;;1999.90;999.90;;;;;;;34.49;52.67;94965.97;5049809;28;20213;-68
2023/05/22 09:12:17;;;;;;;1999.90;999.90;;;;;;;35.61;49.59;94978.91;5066180;28;20166;-65
2023/05/22 09:14:43;;;;;;;1999.90;999.90;;;;;;;35.45;49.71;94974.66;5066313;28;20269;-63
2023/05/22 09:17:10;;;;;;;1999.90;999.90;;;;;;;34.73;53.35;94960.38;5065864;28;20190;-64
2023/05/22 09:19:36;;;;;;;1999.90;999.90;;;;;;;34.23;53.07;94977.72;5066152;28;20193;-64
2023/05/22 09:22:05;;;;;;;1999.90;999.90;;;;;;;34.92;52.43;94968.50;5049572;28;20265;-63
2023/05/22 09:24:37;;;;;;;1999.90;999.90;;;;;;;35.50;49.16;94971.59;5049433;28;20197;-64
2023/05/22 09:27:05;;;;;;;1999.90;999.90;;;;;;;36.53;45.33;94964.84;5065867;28;20193;-65
2023/05/22 09:29:31;;;;;;;1999.90;999.90;;;;;;;35.89;46.28;94964.31;5065665;28;20194;-64
2023/05/22 09:31:58;;;;;;;1999.90;999.90;;;;;;;36.52;45.81;94962.59;5065383;28;20265;-65
2023/05/22 09:34:27;;;;;;;1999.90;999.90;;;;;;;36.99;44.06;94976.50;5065486;28;20204;-64
2023/05/22 09:37:00;;;;;;;1999.90;999.90;;;;;;;35.93;44.95;94973.94;5065285;28;20217;-65
2023/05/22 09:39:38;;;;;;;1999.90;999.90;;;;;;;35.93;45.99;94961.81;5048704;28;20204;-64
2023/05/22 09:42:04;;;;;;;1999.90;999.90;;;;;;;35.61;48.04;94976.09;5065159;28;20197;-63
2023/05/22 09:44:29;;;;;;;1999.90;999.90;;;;;;;35.43;50.60;94972.38;5048619;28;20224;-64
2023/05/22 09:46:54;;;;;;;1999.90;999.90;;;;;;;35.20;51.07;94968.13;5065056;28;20194;-64
2023/05/22 09:49:20;;;;;;;1999.90;999.90;;;;;;;36.35;47.24;94968.28;5065682;28;20194;-64
2023/05/22 09:51:46;;;;;;;1999.90;999.90;;;;;;;36.49;44.18;94972.31;5048721;28;20275;-64
2023/05/22 09:54:14;;;;;;;1999.90;999.90;;;;;;;35.54;47.69;94965.50;5048403;28;20199;-65
2023/05/22 09:56:42;;;;;;;1999.90;999.90;;;;;;;35.13;48.69;94972.53;5048325;28;20193;-65
2023/05/22 09:59:08;;;;;;;1999.90;999.90;;;;;;;35.02;50.52;94975.03;5064882;28;20189;-62
2023/05/22 10:01:36;;;;;;;1999.90;999.90;;;;;;;34.19;55.38;94968.84;5065360;28;20182;-64
2023/05/22 10:04:03;;;;;;;1999.90;999.90;;;;;;;34.39;53.34;94973.53;5064928;28;20206;-63
2023/05/22 10:06:30;;;;;;;1999.90;999.90;;;;;;;33.59;55.87;94967.50;5065124;28;20324;-63
2023/05/22 10:09:01;;;;;;;1999.90;999.90;;;;;;;34.36;54.17;94964.09;5065179;28;20193;-64
2023/05/22 10:11:29;;;;;;;1999.90;999.90;;;;;;;33.87;53.79;94968.66;5065025;28;20221;-63
2023/05/22 10:13:57;;;;;;;1999.90;999.90;;;;;;;33.46;55.08;94962.00;5048350;28;20350;-64
2023/05/22 10:16:24;;;;;;;1999.90;999.90;;;;;;;33.90;56.29;94968.28;5065048;28;20195;-64
2023/05/22 10:18:51;;;;;;;1999.90;999.90;;;;;;;34.69;55.34;94962.84;5048517;28;20200;-63
2023/05/22 10:21:17;;;;;;;1999.90;999.90;;;;;;;34.57;54.61;94961.78;5047939;28;20204;-63
2023/05/22 10:23:43;;;;;;;1999.90;999.90;;;;;;;34.04;54.46;94966.75;5048199;28;20186;-62
2023/05/22 10:26:09;;;;;;;1999.90;999.90;;;;;;;34.62;54.52;94968.56;5064316;28;20182;-62
2023/05/22 10:28:41;;;;;;;1999.90;999.90;;;;;;;34.93;51.79;94972.84;5064396;28;20194;-63
2023/05/22 10:31:18;;;;;;;1999.90;999.90;;;;;;;35.11;53.63;94960.25;5064740;28;20217;-63
2023/05/22 10:33:50;;;;;;;1999.90;999.90;;;;;;;35.33;51.82;94962.22;5064482;28;20197;-65
2023/05/22 10:36:43;;;;;;;1999.90;999.90;;;;;;;34.38;53.65;94964.28;5047965;28;20231;-64
2023/05/22 10:39:42;;;;;;;1999.90;999.90;;;;;;;33.68;55.40;94957.66;5047740;28;20206;-63
2023/05/22 10:42:14;;;;;;;1999.90;999.90;;;;;;;33.93;55.91;94963.56;5047982;28;20186;-66
2023/05/22 10:44:40;;;;;;;1999.90;999.90;;;;;;;34.30;55.55;94957.81;5064311;28;20237;-65
2023/05/22 10:47:10;;;;;;;1999.90;999.90;;;;;;;35.02;55.46;94952.31;5064490;28;20194;-64
2023/05/22 10:49:35;;;;;;;1999.90;999.90;;;;;;;35.76;50.07;94947.53;5064345;28;20204;-65